McGrath Airport

About
Name: McGrath Airport
Identifier:  MCG/PAMC
Serves:  McGrath, Alaska
Owner:  State of Alaska DOT&PF - Central Region
Public/Private:  Public
Local Time:  20. Aug 06:53 AKDT
Description: McGrath Airport is a state-owned public-use airport serving McGrath,[1] a city in the Yukon-Koyukuk Census Area of the U.S. state of Alaska.
Source: Wikipedia
Location
Runways
Identifier Length (m/ft) Surface
16/34 5,936/5,936 Asphalt
5/23 2,000/2,000 Gravel
Flights per Day
1 flights
Distance: 335km (208mi)
Punctuality
27% (1 flights per day delayed)
Delay Average: 30 minutes
Current Weather
 2 C (Humidity: 100%)
  5kt (9km/h / 5mph) from 270°
  16km (10 mi.)
 
 METAR PAMC 201353Z AUTO 27005KT 10SM CLR 02/02 A2985 RMK AO2 SLP114 T00220022 TSNO $

Current Flights

Departures
Number Departure To Airline
Arrivals
Number Arrival From Airline

Current Delays

Departures
N/A
Arrivals
N/A

Destinations

Top Destinations
Airport Flights
per week
Seats
per week
  Anchorage (ANC) 7 155 1 22
  Aniak (ANI) 0 - 0 0
  Fairbanks (FAI) 0 - 0 0
  Palmer (PAQ) 0 - 0 0

Airlines & Planes

Top Airlines
Airline Flights
per Day
Seats
per Day
  Era Alaska 0 22
  Northern Air Cargo 0 -
SkyBus International Airlines 0 -
Alaska Central Express 0 -
Top Plane Types
Model Flights Seats
Bombardier Dash 8-100 0.6/day 22/day 22.2
Boeing B737-300 0.4/day - 0
Pilatus PC-12 0.2/day - 0
Beech 1900D 0.1/day - 0